Time;durP1;ratioP1;P1;durP2;ratioP2;P2;SDS_P1;SDS_P2;PMS_P1;PMS_P2;Temp;Humidity;BMP_temperature;BMP_pressure;BME280_temperature;BME280_humidity;BME280_pressure;Samples;Min_cycle;Max_cycle;Signal;HPM_P1;HPM_P2
2024/04/18 00:01:29;;;;;;;17.60;9.07;;;4.40;99.90;;;;;;5347159;26;20004;-53
2024/04/18 00:03:55;;;;;;;17.73;9.15;;;4.30;99.90;;;;;;5345414;26;20016;-54
2024/04/18 00:06:20;;;;;;;15.43;8.98;;;4.30;99.90;;;;;;5337751;26;20329;-50
2024/04/18 00:08:46;;;;;;;15.75;9.77;;;4.20;99.90;;;;;;5340210;26;20000;-52
2024/04/18 00:11:12;;;;;;;17.33;10.07;;;4.20;99.90;;;;;;5343969;26;20378;-53
2024/04/18 00:13:37;;;;;;;17.35;10.13;;;4.20;99.90;;;;;;5347127;26;20002;-57
2024/04/18 00:16:03;;;;;;;19.10;10.82;;;4.20;99.90;;;;;;5345509;26;20356;-57
2024/04/18 00:18:29;;;;;;;18.58;10.00;;;4.20;99.90;;;;;;5360061;26;20051;-53
2024/04/18 00:20:54;;;;;;;18.42;9.20;;;4.20;99.90;;;;;;5343193;26;20033;-51
2024/04/18 00:23:20;;;;;;;20.52;10.43;;;4.20;99.90;;;;;;5343397;26;20013;-55
2024/04/18 00:25:46;;;;;;;21.00;10.65;;;4.20;99.90;;;;;;5343729;26;20015;-57
2024/04/18 00:28:11;;;;;;;20.33;9.98;;;4.20;99.90;;;;;;5335711;26;19997;-56
2024/04/18 00:30:38;;;;;;;18.50;9.90;;;4.20;99.90;;;;;;5323382;26;20009;-53
2024/04/18 00:33:03;;;;;;;18.48;9.80;;;4.20;99.90;;;;;;5312718;26;20001;-54
2024/04/18 00:35:29;;;;;;;16.77;10.07;;;4.20;99.90;;;;;;5338995;26;20001;-54
2024/04/18 00:37:55;;;;;;;17.27;9.23;;;4.30;99.90;;;;;;5341985;26;20074;-54
2024/04/18 00:40:20;;;;;;;17.98;9.63;;;4.30;99.90;;;;;;5343515;26;19997;-54
2024/04/18 00:42:46;;;;;;;19.48;9.85;;;4.40;99.90;;;;;;5344688;26;20001;-54
2024/04/18 00:45:12;;;;;;;20.90;11.40;;;4.40;99.90;;;;;;5328899;26;20359;-58
2024/04/18 00:47:38;;;;;;;17.65;9.15;;;4.40;99.90;;;;;;5265779;27;20009;-55
2024/04/18 00:50:07;;;;;;;17.77;10.38;;;4.40;99.90;;;;;;5307628;26;20001;-59
2024/04/18 00:52:33;;;;;;;20.45;10.30;;;4.40;99.90;;;;;;5285460;26;20115;-57
2024/04/18 00:54:59;;;;;;;17.35;9.65;;;4.50;99.90;;;;;;5307703;26;20346;-59
2024/04/18 00:57:25;;;;;;;16.85;9.90;;;4.50;99.90;;;;;;5327573;26;20000;-58
2024/04/18 00:59:51;;;;;;;17.73;9.63;;;4.50;99.90;;;;;;5336374;26;20009;-59
2024/04/18 01:02:18;;;;;;;17.15;10.23;;;4.50;99.90;;;;;;5325844;26;20015;-59
2024/04/18 01:04:44;;;;;;;18.40;9.98;;;4.60;99.90;;;;;;5339277;26;20020;-58
2024/04/18 01:07:10;;;;;;;20.10;10.20;;;4.50;99.90;;;;;;5338658;26;19997;-58
2024/04/18 01:09:35;;;;;;;23.23;11.27;;;4.60;99.90;;;;;;5344448;26;20020;-57
2024/04/18 01:12:01;;;;;;;16.15;9.55;;;4.60;99.90;;;;;;5346685;26;20005;-59
2024/04/18 01:14:27;;;;;;;18.83;10.10;;;4.60;99.90;;;;;;5315004;26;20005;-57
2024/04/18 01:16:52;;;;;;;17.70;9.50;;;4.60;99.90;;;;;;5318271;26;20407;-57
2024/04/18 01:19:19;;;;;;;14.52;8.73;;;4.60;99.90;;;;;;5289715;26;20001;-59
2024/04/18 01:21:47;;;;;;;18.77;10.18;;;4.60;99.90;;;;;;5325587;26;20022;-60
2024/04/18 01:24:13;;;;;;;19.80;11.10;;;4.70;99.90;;;;;;5324837;26;20005;-60
2024/04/18 01:26:39;;;;;;;22.02;12.43;;;4.70;99.90;;;;;;5342631;26;20440;-60
2024/04/18 01:29:05;;;;;;;24.17;12.13;;;4.60;99.90;;;;;;5325976;26;20006;-54
2024/04/18 01:31:31;;;;;;;18.98;10.63;;;4.60;99.90;;;;;;5318625;26;20006;-55
2024/04/18 01:33:57;;;;;;;24.45;12.13;;;4.60;99.90;;;;;;5318047;26;20017;-57
2024/04/18 01:36:23;;;;;;;23.98;12.38;;;4.60;99.90;;;;;;5324903;26;19997;-56
2024/04/18 01:38:49;;;;;;;25.17;12.68;;;4.60;99.90;;;;;;5336748;26;20382;-53
2024/04/18 01:41:16;;;;;;;23.73;12.57;;;4.60;99.90;;;;;;5328812;26;20336;-55
2024/04/18 01:43:42;;;;;;;25.38;14.07;;;4.70;99.90;;;;;;5341321;26;20457;-54
2024/04/18 01:46:07;;;;;;;25.20;13.77;;;4.70;99.90;;;;;;5331304;26;20002;-57
2024/04/18 01:48:33;;;;;;;25.13;13.15;;;4.70;99.90;;;;;;5344009;26;20051;-56
2024/04/18 01:50:58;;;;;;;22.75;12.93;;;4.70;99.90;;;;;;5334776;26;20001;-57
2024/04/18 01:53:24;;;;;;;22.33;12.20;;;4.60;99.90;;;;;;5309518;26;19997;-57
2024/04/18 01:55:50;;;;;;;24.38;13.75;;;4.60;99.90;;;;;;5330260;26;20008;-57
2024/04/18 01:58:15;;;;;;;27.10;14.18;;;4.60;99.90;;;;;;5327171;26;20009;-54
2024/04/18 02:00:44;;;;;;;26.90;14.10;;;4.60;99.90;;;;;;5318020;26;19997;-56
2024/04/18 02:03:09;;;;;;;28.83;14.68;;;4.60;99.90;;;;;;5318127;26;20006;-52
2024/04/18 02:05:35;;;;;;;29.15;15.35;;;4.50;99.90;;;;;;5319257;26;20002;-58
2024/04/18 02:08:01;;;;;;;25.98;13.40;;;4.60;99.90;;;;;;5320646;26;20076;-56
2024/04/18 02:10:27;;;;;;;30.92;15.32;;;4.50;99.90;;;;;;5335456;26;20439;-54
2024/04/18 02:12:56;;;;;;;32.63;16.05;;;4.50;99.90;;;;;;5338247;26;20006;-56
2024/04/18 02:15:23;;;;;;;30.15;15.40;;;4.50;99.90;;;;;;5326156;26;20343;-57
2024/04/18 02:17:49;;;;;;;32.50;15.70;;;4.40;99.90;;;;;;5328015;26;20450;-52
2024/04/18 02:20:14;;;;;;;29.90;15.52;;;4.40;99.90;;;;;;5329175;26;20009;-53
2024/04/18 02:22:40;;;;;;;30.08;15.32;;;4.40;99.90;;;;;;5330370;26;20470;-55
2024/04/18 02:25:10;;;;;;;28.65;15.50;;;4.40;99.90;;;;;;5341023;26;19998;-56
2024/04/18 02:27:37;;;;;;;33.70;15.02;;;4.40;99.90;;;;;;5324335;26;20016;-53
2024/04/18 02:30:05;;;;;;;30.80;15.82;;;4.40;99.90;;;;;;5338719;26;19993;-57
2024/04/18 02:32:30;;;;;;;32.55;14.93;;;4.30;99.90;;;;;;5333830;26;20012;-57
2024/04/18 02:34:56;;;;;;;29.58;14.18;;;4.30;99.90;;;;;;5333457;26;20355;-57
2024/04/18 02:37:22;;;;;;;34.13;15.05;;;4.20;99.90;;;;;;5339121;26;20002;-57
2024/04/18 02:39:47;;;;;;;30.42;15.32;;;4.20;99.90;;;;;;5338981;26;20043;-56
2024/04/18 02:42:13;;;;;;;32.00;15.77;;;4.20;99.90;;;;;;5341934;26;20001;-54
2024/04/18 02:44:39;;;;;;;33.53;15.00;;;4.20;99.90;;;;;;5332389;26;19997;-56
2024/04/18 02:47:04;;;;;;;34.10;16.10;;;4.20;99.90;;;;;;5329319;26;20001;-53
2024/04/18 02:49:30;;;;;;;28.88;14.57;;;4.10;99.90;;;;;;5323367;26;19997;-56
2024/04/18 02:51:56;;;;;;;28.88;14.02;;;4.10;99.90;;;;;;5324074;26;19997;-53
2024/04/18 02:54:22;;;;;;;32.85;15.80;;;4.10;99.90;;;;;;5318541;26;19996;-52
2024/04/18 02:56:47;;;;;;;30.77;15.73;;;4.10;99.90;;;;;;5262265;27;20005;-56
2024/04/18 02:59:16;;;;;;;30.17;15.23;;;4.10;99.90;;;;;;5325915;26;20013;-53
2024/04/18 03:01:41;;;;;;;33.25;15.18;;;4.10;99.90;;;;;;5322078;26;20016;-56
2024/04/18 03:04:07;;;;;;;36.22;16.33;;;4.10;99.90;;;;;;5339815;26;20479;-57
2024/04/18 03:06:33;;;;;;;34.20;16.00;;;4.10;99.90;;;;;;5337234;26;20465;-56
2024/04/18 03:08:58;;;;;;;33.17;15.15;;;4.10;99.90;;;;;;5323443;26;19998;-55
2024/04/18 03:11:24;;;;;;;33.88;16.45;;;4.10;99.90;;;;;;5326010;26;20012;-53
2024/04/18 03:13:49;;;;;;;34.28;16.42;;;4.10;99.90;;;;;;5319127;26;19998;-55
2024/04/18 03:16:15;;;;;;;37.88;16.35;;;4.00;99.90;;;;;;5326226;26;20012;-56
2024/04/18 03:18:44;;;;;;;35.38;16.83;;;4.00;99.90;;;;;;5342416;26;20004;-54
2024/04/18 03:21:10;;;;;;;29.48;15.95;;;4.00;99.90;;;;;;5341709;26;20127;-55
2024/04/18 03:23:37;;;;;;;42.88;18.63;;;4.00;99.90;;;;;;5336933;26;20016;-54
2024/04/18 03:26:03;;;;;;;35.50;17.35;;;4.10;99.90;;;;;;5331951;26;20005;-57
2024/04/18 03:28:28;;;;;;;38.67;17.45;;;4.10;99.90;;;;;;5341095;26;20016;-54
2024/04/18 03:30:54;;;;;;;37.10;17.50;;;4.10;99.90;;;;;;5312091;26;20011;-55
2024/04/18 03:33:19;;;;;;;37.28;17.92;;;4.20;99.90;;;;;;5340080;26;20500;-57
2024/04/18 03:35:45;;;;;;;38.55;18.52;;;4.20;99.90;;;;;;5343863;26;20012;-55
2024/04/18 03:38:11;;;;;;;42.42;19.23;;;4.20;99.90;;;;;;5340944;26;20071;-56
2024/04/18 03:40:36;;;;;;;37.55;17.80;;;4.20;99.90;;;;;;5335417;26;19994;-53
2024/04/18 03:43:02;;;;;;;40.95;18.10;;;4.30;99.90;;;;;;5346118;26;20036;-54
2024/04/18 03:45:28;;;;;;;46.80;20.77;;;4.40;99.90;;;;;;5337376;26;20001;-56
2024/04/18 03:47:54;;;;;;;36.15;17.90;;;4.40;99.90;;;;;;5336494;26;20010;-53
2024/04/18 03:50:20;;;;;;;31.33;16.70;;;4.40;99.90;;;;;;5339188;26;20459;-56
2024/04/18 03:52:45;;;;;;;37.05;17.58;;;4.40;99.90;;;;;;5337107;26;20352;-56
2024/04/18 03:55:11;;;;;;;36.90;16.58;;;4.40;99.90;;;;;;5338537;26;20033;-55
2024/04/18 03:57:36;;;;;;;40.40;16.98;;;4.50;99.90;;;;;;5326435;26;20020;-56
2024/04/18 04:00:03;;;;;;;35.10;15.77;;;4.50;99.90;;;;;;5337522;26;20001;-53
2024/04/18 04:02:32;;;;;;;36.75;16.70;;;4.50;99.90;;;;;;5338130;26;20012;-53
2024/04/18 04:04:57;;;;;;;34.60;17.00;;;4.60;99.90;;;;;;5326402;26;20004;-54
2024/04/18 04:07:23;;;;;;;35.97;17.52;;;4.60;99.90;;;;;;5342112;26;20009;-53
2024/04/18 04:09:49;;;;;;;39.53;15.80;;;4.60;99.90;;;;;;5333112;26;19997;-52
2024/04/18 04:12:14;;;;;;;34.75;16.98;;;4.60;99.90;;;;;;5337967;26;20001;-56
2024/04/18 04:14:40;;;;;;;39.63;17.40;;;4.60;99.90;;;;;;5334652;26;20004;-56
2024/04/18 04:17:06;;;;;;;39.30;18.25;;;4.60;99.90;;;;;;5341285;26;20020;-57
2024/04/18 04:19:31;;;;;;;35.75;15.88;;;4.60;99.90;;;;;;5352502;26;20343;-56
2024/04/18 04:21:57;;;;;;;36.25;17.40;;;4.70;99.90;;;;;;5343370;26;20426;-57
2024/04/18 04:24:22;;;;;;;38.05;17.10;;;4.70;99.90;;;;;;5341579;26;20001;-54
2024/04/18 04:26:48;;;;;;;42.47;18.58;;;4.70;99.90;;;;;;5346468;26;20004;-53
2024/04/18 04:29:14;;;;;;;37.78;17.48;;;4.80;99.90;;;;;;5345008;26;20340;-53
2024/04/18 04:31:40;;;;;;;33.38;17.17;;;4.70;99.90;;;;;;5311932;26;20012;-53
2024/04/18 04:34:07;;;;;;;31.40;16.00;;;4.70;99.90;;;;;;5371068;26;20332;-56
2024/04/18 04:36:34;;;;;;;37.30;16.65;;;4.70;99.90;;;;;;5317981;26;20001;-53
2024/04/18 04:38:59;;;;;;;34.28;17.15;;;4.70;99.90;;;;;;5360671;26;20075;-55
2024/04/18 04:41:26;;;;;;;34.22;16.52;;;4.70;99.90;;;;;;5322274;26;20012;-56
2024/04/18 04:43:52;;;;;;;34.30;17.05;;;4.70;99.90;;;;;;5350907;26;20009;-52
2024/04/18 04:46:17;;;;;;;34.25;17.17;;;4.80;99.90;;;;;;5351042;26;20012;-54
2024/04/18 04:48:43;;;;;;;39.00;18.60;;;4.80;99.90;;;;;;5317950;26;20009;-57
2024/04/18 04:51:09;;;;;;;35.75;16.00;;;4.80;99.90;;;;;;5353305;26;20001;-54
2024/04/18 04:53:35;;;;;;;39.45;17.08;;;4.80;99.90;;;;;;5357680;26;20011;-56
2024/04/18 04:56:01;;;;;;;34.65;16.95;;;4.80;99.90;;;;;;5371080;26;19993;-56
2024/04/18 04:58:26;;;;;;;31.38;15.98;;;4.80;99.90;;;;;;5340992;26;20522;-56
2024/04/18 05:00:56;;;;;;;33.58;15.77;;;4.90;99.90;;;;;;5349507;26;20342;-56
2024/04/18 05:03:22;;;;;;;34.10;16.08;;;4.90;99.90;;;;;;5324343;26;20005;-56
2024/04/18 05:05:47;;;;;;;30.63;16.73;;;4.90;99.90;;;;;;5345452;26;20070;-57
2024/04/18 05:08:13;;;;;;;34.83;17.20;;;4.90;99.90;;;;;;5348271;26;20454;-53
2024/04/18 05:10:43;;;;;;;38.10;16.98;;;4.90;99.90;;;;;;5349112;26;20001;-53
2024/04/18 05:13:10;;;;;;;34.13;16.08;;;4.90;99.90;;;;;;5339396;26;20451;-56
2024/04/18 05:15:36;;;;;;;37.63;17.38;;;4.90;99.90;;;;;;5317431;26;20021;-54
2024/04/18 05:18:03;;;;;;;35.30;17.10;;;5.00;99.90;;;;;;5350524;26;20012;-53
2024/04/18 05:20:28;;;;;;;31.08;17.08;;;5.00;99.90;;;;;;5321037;26;20001;-52
2024/04/18 05:22:54;;;;;;;33.00;16.48;;;5.00;99.90;;;;;;5366956;26;20011;-55
2024/04/18 05:25:19;;;;;;;31.83;15.85;;;5.00;99.90;;;;;;5339399;26;20348;-57
2024/04/18 05:27:55;;;;;;;34.22;18.08;;;5.00;99.90;;;;;;5337036;26;20464;-55
2024/04/18 05:33:05;;;;;;;31.88;15.10;;;5.00;99.90;;;;;;5360079;26;20015;-55
2024/04/18 05:35:30;;;;;;;34.90;16.58;;;5.00;99.90;;;;;;5369824;26;19996;-55
2024/04/18 05:37:56;;;;;;;32.55;16.77;;;5.00;99.90;;;;;;5321122;26;20004;-56
2024/04/18 05:40:21;;;;;;;30.40;16.77;;;5.00;99.90;;;;;;5328199;26;20010;-53
2024/04/18 05:42:47;;;;;;;30.30;15.20;;;5.10;99.90;;;;;;5349612;26;20079;-54
2024/04/18 05:45:12;;;;;;;28.67;14.45;;;5.20;99.90;;;;;;5339356;26;20009;-56
2024/04/18 05:47:38;;;;;;;26.85;12.95;;;5.20;99.90;;;;;;5352759;26;19997;-53
2024/04/18 05:50:04;;;;;;;29.20;15.38;;;5.30;99.90;;;;;;5350262;26;20086;-57
2024/04/18 05:52:30;;;;;;;28.08;14.18;;;5.30;99.90;;;;;;5336319;26;20083;-53
2024/04/18 05:54:55;;;;;;;27.70;14.02;;;5.50;99.90;;;;;;5377871;26;20008;-53
2024/04/18 05:57:21;;;;;;;28.88;13.23;;;5.50;99.90;;;;;;5355447;26;20095;-55
2024/04/18 05:59:47;;;;;;;24.42;12.50;;;5.60;99.90;;;;;;5326015;26;20356;-55
2024/04/18 06:02:13;;;;;;;24.27;10.98;;;5.60;99.90;;;;;;5343903;26;20105;-55
2024/04/18 06:04:38;;;;;;;22.10;11.32;;;5.60;99.90;;;;;;5298206;26;20012;-53
2024/04/18 06:07:04;;;;;;;16.60;9.35;;;5.70;99.90;;;;;;5312528;26;19997;-55
2024/04/18 06:09:29;;;;;;;16.70;9.30;;;5.80;99.90;;;;;;5342486;26;20006;-57
2024/04/18 06:11:55;;;;;;;16.15;7.57;;;5.80;99.90;;;;;;5351859;26;20007;-55
2024/04/18 06:14:20;;;;;;;21.95;9.35;;;5.80;99.90;;;;;;5326521;26;19994;-56
2024/04/18 06:16:46;;;;;;;18.42;7.35;;;5.90;99.90;;;;;;5342262;26;20055;-53
2024/04/18 06:19:12;;;;;;;14.80;7.20;;;5.80;99.90;;;;;;5310372;26;19998;-54
2024/04/18 06:21:37;;;;;;;13.02;6.78;;;6.10;99.90;;;;;;5338956;26;20012;-55
2024/04/18 06:24:03;;;;;;;12.00;6.57;;;6.30;99.90;;;;;;5305327;26;19997;-52
2024/04/18 06:26:29;;;;;;;8.23;5.40;;;6.60;99.90;;;;;;5336762;26;20025;-57
2024/04/18 06:28:54;;;;;;;11.63;5.10;;;7.10;99.90;;;;;;5338187;26;20009;-51
2024/04/18 06:31:21;;;;;;;15.10;5.15;;;7.10;99.90;;;;;;5333874;26;22297;-55
2024/04/18 06:33:47;;;;;;;10.98;5.38;;;7.10;99.90;;;;;;5338363;26;20329;-55
2024/04/18 06:36:12;;;;;;;12.18;5.03;;;6.80;99.90;;;;;;5338701;26;19992;-52
2024/04/18 06:38:39;;;;;;;12.15;5.25;;;6.70;99.90;;;;;;5307442;26;20009;-52
2024/04/18 06:41:07;;;;;;;8.55;5.30;;;6.60;99.90;;;;;;5312695;26;20036;-52
2024/04/18 06:43:32;;;;;;;10.80;4.93;;;6.50;99.90;;;;;;5328535;26;20015;-56
2024/04/18 06:45:58;;;;;;;8.75;4.85;;;6.40;99.90;;;;;;5338528;26;20001;-55
2024/04/18 06:48:23;;;;;;;10.15;5.45;;;6.50;99.90;;;;;;5330789;26;20071;-53
2024/04/18 06:50:49;;;;;;;8.95;4.80;;;6.50;99.90;;;;;;5328043;26;20059;-52
2024/04/18 06:53:14;;;;;;;8.25;5.15;;;6.60;99.90;;;;;;5328950;26;20005;-56
2024/04/18 06:55:40;;;;;;;11.45;5.70;;;6.70;99.90;;;;;;5329354;26;20009;-55
2024/04/18 06:58:06;;;;;;;6.85;4.55;;;6.70;99.90;;;;;;5330432;26;19998;-54
2024/04/18 07:00:31;;;;;;;17.50;5.40;;;6.70;99.90;;;;;;5333977;26;20001;-51
2024/04/18 07:02:57;;;;;;;10.48;5.50;;;6.80;99.90;;;;;;5335077;26;20012;-57
2024/04/18 07:05:22;;;;;;;12.20;5.78;;;7.00;99.90;;;;;;5335832;26;19997;-54
2024/04/18 07:07:52;;;;;;;8.02;5.30;;;7.00;99.90;;;;;;5329738;26;20002;-54
2024/04/18 07:10:17;;;;;;;12.63;5.88;;;7.20;99.90;;;;;;5307602;26;20386;-54
2024/04/18 07:12:43;;;;;;;10.80;5.53;;;7.30;99.90;;;;;;5326879;26;20045;-51
2024/04/18 07:15:09;;;;;;;14.88;5.53;;;7.50;99.90;;;;;;5325036;26;20006;-52
2024/04/18 07:17:34;;;;;;;10.68;5.43;;;7.90;99.90;;;;;;5327568;26;20016;-52
2024/04/18 07:20:00;;;;;;;13.80;5.25;;;8.90;99.90;;;;;;5330429;26;20020;-51
2024/04/18 07:22:25;;;;;;;13.13;4.28;;;9.80;99.90;;;;;;5334847;26;19997;-49
2024/04/18 07:24:51;;;;;;;7.35;4.43;;;9.60;99.90;;;;;;5331117;26;19997;-52
2024/04/18 07:27:17;;;;;;;9.60;5.00;;;9.80;99.90;;;;;;5317310;26;20079;-53
2024/04/18 07:29:42;;;;;;;9.30;5.18;;;9.70;99.90;;;;;;5326991;26;19993;-54
2024/04/18 07:32:08;;;;;;;10.00;4.53;;;9.70;99.90;;;;;;5334842;26;20356;-51
2024/04/18 07:34:34;;;;;;;7.38;4.93;;;9.70;99.90;;;;;;5332564;26;20001;-54
2024/04/18 07:37:00;;;;;;;6.78;4.22;;;9.80;99.90;;;;;;5334091;26;20001;-53
2024/04/18 07:39:26;;;;;;;11.15;5.03;;;9.90;99.90;;;;;;5333305;26;20013;-53
2024/04/18 07:41:52;;;;;;;8.45;4.13;;;10.20;99.90;;;;;;5314121;26;20075;-55
2024/04/18 07:44:17;;;;;;;6.70;4.43;;;10.90;99.90;;;;;;5329498;26;20015;-55
2024/04/18 07:46:44;;;;;;;7.35;3.72;;;11.70;99.90;;;;;;5337697;26;20025;-58
2024/04/18 07:49:10;;;;;;;8.90;5.15;;;12.10;99.90;;;;;;5332027;26;20001;-56
2024/04/18 07:51:37;;;;;;;7.93;4.18;;;12.60;99.90;;;;;;5324341;26;20388;-55
2024/04/18 07:54:02;;;;;;;7.45;3.83;;;12.50;99.90;;;;;;5333694;26;20055;-56
2024/04/18 07:56:28;;;;;;;6.45;3.55;;;12.40;99.90;;;;;;5330799;26;20004;-55
2024/04/18 07:58:53;;;;;;;14.45;3.80;;;12.30;99.90;;;;;;5329852;26;20098;-54
2024/04/18 08:01:19;;;;;;;6.20;3.85;;;11.90;99.90;;;;;;5324998;26;20020;-51
2024/04/18 08:03:45;;;;;;;10.65;4.25;;;11.30;99.90;;;;;;5334493;26;20000;-55
2024/04/18 08:06:10;;;;;;;9.13;4.15;;;11.00;99.90;;;;;;5335115;26;19994;-54
2024/04/18 08:08:36;;;;;;;14.68;5.90;;;10.70;99.90;;;;;;5337173;26;20012;-49
2024/04/18 08:11:01;;;;;;;10.73;3.90;;;10.40;99.90;;;;;;5339502;26;20020;-51
2024/04/18 08:13:27;;;;;;;10.25;4.80;;;10.40;99.90;;;;;;5343497;26;20037;-53
2024/04/18 08:15:52;;;;;;;10.43;4.47;;;10.70;99.90;;;;;;5335863;26;20015;-56
2024/04/18 08:18:19;;;;;;;9.23;4.65;;;10.70;99.90;;;;;;5333124;26;20030;-54
2024/04/18 08:20:45;;;;;;;8.70;4.78;;;10.60;99.90;;;;;;5341699;26;20104;-53
2024/04/18 08:23:11;;;;;;;12.98;4.88;;;10.40;99.90;;;;;;5342669;26;20016;-58
2024/04/18 08:25:37;;;;;;;10.85;4.93;;;10.20;99.90;;;;;;5337555;26;20016;-58
2024/04/18 08:28:04;;;;;;;7.68;4.40;;;10.00;99.90;;;;;;5328131;26;19997;-56
2024/04/18 08:30:29;;;;;;;10.60;4.70;;;9.80;99.90;;;;;;5333889;26;20382;-57
2024/04/18 08:32:55;;;;;;;13.15;4.93;;;9.90;99.90;;;;;;5329065;26;19997;-58
2024/04/18 08:35:20;;;;;;;12.50;5.15;;;10.10;99.90;;;;;;5330565;26;20131;-53
2024/04/18 08:37:46;;;;;;;12.60;4.75;;;10.00;99.90;;;;;;5332536;26;20012;-55
2024/04/18 08:40:12;;;;;;;10.85;4.25;;;10.20;99.90;;;;;;5333427;26;20417;-55
2024/04/18 08:42:37;;;;;;;9.80;5.40;;;10.20;99.90;;;;;;5342191;26;20001;-55
2024/04/18 08:45:08;;;;;;;17.30;4.78;;;10.60;99.90;;;;;;5335623;26;19997;-53
2024/04/18 08:47:34;;;;;;;11.95;4.63;;;10.70;99.90;;;;;;5332937;26;20012;-58
2024/04/18 08:50:00;;;;;;;10.32;4.22;;;10.90;99.90;;;;;;5335561;26;20060;-55
2024/04/18 08:52:30;;;;;;;12.48;4.70;;;11.00;99.90;;;;;;5339288;26;20612;-56
2024/04/18 08:54:56;;;;;;;8.10;4.47;;;11.20;99.90;;;;;;5339318;26;20015;-58
2024/04/18 08:57:26;;;;;;;9.98;4.78;;;11.10;99.90;;;;;;5341803;26;20033;-58
2024/04/18 08:59:58;;;;;;;7.03;4.20;;;10.70;99.90;;;;;;5339361;26;20070;-57
2024/04/18 09:02:25;;;;;;;10.55;4.82;;;10.60;99.90;;;;;;5341593;26;20025;-56
2024/04/18 09:04:51;;;;;;;7.90;5.18;;;11.30;99.90;;;;;;5334909;26;20336;-56
2024/04/18 09:07:16;;;;;;;8.77;4.50;;;12.50;99.90;;;;;;5336602;26;20012;-58
2024/04/18 09:09:43;;;;;;;9.38;5.05;;;14.20;99.90;;;;;;5330395;26;20001;-55
2024/04/18 09:12:10;;;;;;;9.57;4.63;;;15.40;98.90;;;;;;5322151;26;20217;-56
2024/04/18 09:14:37;;;;;;;11.13;5.18;;;15.70;98.50;;;;;;5338437;26;20011;-56
2024/04/18 09:17:14;;;;;;;8.98;4.05;;;15.60;97.90;;;;;;5335251;26;21347;-54
2024/04/18 09:19:39;;;;;;;5.97;3.72;;;15.00;99.20;;;;;;5316846;26;20012;-58
2024/04/18 09:22:05;;;;;;;7.10;3.53;;;15.20;97.30;;;;;;5259832;26;20006;-55
2024/04/18 09:24:31;;;;;;;7.47;4.00;;;16.00;96.70;;;;;;5335294;26;20461;-58
2024/04/18 09:26:58;;;;;;;6.18;3.83;;;16.70;95.40;;;;;;5317247;26;20083;-53
2024/04/18 09:29:23;;;;;;;5.55;3.08;;;16.80;96.70;;;;;;5339167;26;20494;-58
2024/04/18 09:31:51;;;;;;;6.05;2.90;;;16.70;94.60;;;;;;5336796;26;20051;-57
2024/04/18 09:34:18;;;;;;;6.07;2.97;;;17.00;94.00;;;;;;5335194;26;20008;-55
2024/04/18 09:36:45;;;;;;;6.45;2.60;;;17.60;92.80;;;;;;5314821;26;20013;-57
2024/04/18 09:39:17;;;;;;;7.95;3.88;;;17.90;91.10;;;;;;5310686;26;20013;-56
2024/04/18 09:41:48;;;;;;;9.27;3.40;;;17.30;92.70;;;;;;5306021;26;20124;-54
2024/04/18 09:44:20;;;;;;;6.13;3.65;;;16.30;93.20;;;;;;5343928;26;20009;-55
2024/04/18 09:46:50;;;;;;;17.35;4.32;;;15.20;95.20;;;;;;5338488;26;20071;-56
2024/04/18 09:49:17;;;;;;;6.15;3.65;;;14.30;95.20;;;;;;5334470;26;20029;-56
2024/04/18 09:51:44;;;;;;;8.50;4.07;;;14.10;96.00;;;;;;5330135;26;20070;-56
2024/04/18 09:54:11;;;;;;;5.60;4.32;;;14.60;97.10;;;;;;5339301;26;20440;-57
2024/04/18 09:56:37;;;;;;;7.30;3.30;;;15.60;94.50;;;;;;5302320;27;20072;-56
2024/04/18 09:59:04;;;;;;;5.95;3.63;;;16.20;94.30;;;;;;5333012;26;20008;-54
2024/04/18 10:01:30;;;;;;;5.78;3.33;;;16.60;93.60;;;;;;5327734;26;20012;-57
2024/04/18 10:03:56;;;;;;;4.15;3.17;;;16.40;91.50;;;;;;5328646;26;20329;-57
2024/04/18 10:06:30;;;;;;;8.50;3.63;;;15.10;93.30;;;;;;5343988;26;20001;-54
2024/04/18 10:08:57;;;;;;;4.78;3.22;;;14.10;94.00;;;;;;5333075;26;19996;-56
2024/04/18 10:11:24;;;;;;;4.25;3.30;;;13.30;96.30;;;;;;5324399;26;20020;-52
2024/04/18 10:13:50;;;;;;;6.70;3.50;;;13.60;95.50;;;;;;5339360;26;20015;-53
2024/04/18 10:16:15;;;;;;;5.43;3.78;;;13.70;94.90;;;;;;5366692;26;20000;-54
2024/04/18 10:18:42;;;;;;;4.20;2.85;;;13.50;96.50;;;;;;5353779;26;19997;-55
2024/04/18 10:21:11;;;;;;;5.93;2.22;;;13.40;95.20;;;;;;5308594;26;20000;-56
2024/04/18 10:23:48;;;;;;;6.07;2.55;;;13.30;93.90;;;;;;5328189;26;19996;-55
2024/04/18 10:26:15;;;;;;;5.47;2.42;;;12.90;95.60;;;;;;5331385;26;20076;-54
2024/04/18 10:28:45;;;;;;;4.53;2.50;;;12.40;96.30;;;;;;5319279;26;20009;-58
2024/04/18 10:31:11;;;;;;;7.57;3.20;;;12.50;97.40;;;;;;5338250;26;19996;-56
2024/04/18 10:33:39;;;;;;;4.63;2.38;;;12.60;96.70;;;;;;5331419;26;20363;-56
2024/04/18 10:36:09;;;;;;;4.15;2.15;;;12.40;96.80;;;;;;5319234;26;20078;-53
2024/04/18 10:38:40;;;;;;;4.10;1.70;;;12.40;97.20;;;;;;5339457;26;20005;-54
2024/04/18 10:41:08;;;;;;;5.50;1.88;;;12.80;95.40;;;;;;5337955;26;20376;-56
2024/04/18 10:43:35;;;;;;;3.75;2.15;;;13.10;97.10;;;;;;5324531;26;20045;-57
2024/04/18 10:46:01;;;;;;;5.68;2.78;;;13.50;95.80;;;;;;5323003;26;20084;-52
2024/04/18 10:48:27;;;;;;;3.55;2.13;;;13.70;95.60;;;;;;5310679;26;20452;-57
2024/04/18 10:50:53;;;;;;;4.05;1.50;;;14.20;94.40;;;;;;5343745;26;20077;-58
2024/04/18 10:53:19;;;;;;;4.72;1.70;;;14.40;92.90;;;;;;5344432;26;20009;-56
2024/04/18 10:55:45;;;;;;;2.70;1.55;;;14.10;93.00;;;;;;5334928;26;20523;-59
2024/04/18 10:58:15;;;;;;;3.17;1.80;;;14.30;93.40;;;;;;5325986;26;19995;-57
2024/04/18 11:00:44;;;;;;;4.30;1.80;;;14.60;93.70;;;;;;5340221;26;20005;-55
2024/04/18 11:03:10;;;;;;;5.35;1.58;;;14.40;93.90;;;;;;5337115;26;20383;-58
2024/04/18 11:05:40;;;;;;;6.43;1.42;;;13.70;94.10;;;;;;5350080;26;20013;-58
2024/04/18 11:08:09;;;;;;;3.97;1.33;;;12.90;96.40;;;;;;5308754;26;20357;-55
2024/04/18 11:10:37;;;;;;;2.88;1.70;;;12.80;96.30;;;;;;5344052;26;20038;-55
2024/04/18 11:13:02;;;;;;;3.00;1.10;;;12.70;96.30;;;;;;5341934;26;20016;-56
2024/04/18 11:15:31;;;;;;;5.78;1.30;;;12.30;96.60;;;;;;5344236;26;20001;-56
2024/04/18 11:18:02;;;;;;;6.85;1.17;;;12.10;96.80;;;;;;5334152;26;20004;-54
2024/04/18 11:20:29;;;;;;;3.88;1.15;;;12.40;95.70;;;;;;5371861;26;19996;-54
2024/04/18 11:22:54;;;;;;;5.00;1.48;;;12.30;95.70;;;;;;5310677;26;20047;-57
2024/04/18 11:25:21;;;;;;;4.70;1.25;;;12.50;95.00;;;;;;5360019;26;20008;-56
2024/04/18 11:27:47;;;;;;;4.38;1.10;;;12.30;96.20;;;;;;5335868;26;20015;-55
2024/04/18 11:30:18;;;;;;;7.05;2.47;;;12.60;96.10;;;;;;5369140;26;20000;-57
2024/04/18 11:32:55;;;;;;;6.22;1.50;;;12.80;96.40;;;;;;5351711;26;19998;-58
2024/04/18 11:35:21;;;;;;;3.50;1.38;;;12.80;95.30;;;;;;5356716;26;20025;-56
2024/04/18 11:37:48;;;;;;;2.53;0.93;;;13.00;94.00;;;;;;5352275;26;20048;-54
2024/04/18 11:40:14;;;;;;;6.68;1.42;;;13.40;93.90;;;;;;5353253;26;20001;-55
2024/04/18 11:42:41;;;;;;;1.60;0.82;;;13.30;93.60;;;;;;5351472;26;20024;-55
2024/04/18 11:45:06;;;;;;;8.15;1.23;;;13.30;92.50;;;;;;5348221;26;20493;-53
2024/04/18 11:47:33;;;;;;;5.53;1.30;;;12.80;94.40;;;;;;5351211;26;20081;-57
2024/04/18 11:49:58;;;;;;;3.80;1.17;;;12.90;93.90;;;;;;5356186;26;20010;-54
2024/04/18 11:52:24;;;;;;;3.40;1.27;;;13.10;94.10;;;;;;5326055;26;20006;-57
2024/04/18 11:54:51;;;;;;;7.28;1.17;;;13.20;93.90;;;;;;5326480;26;20001;-57
2024/04/18 11:57:16;;;;;;;4.35;1.42;;;13.50;93.20;;;;;;5382472;26;20005;-55
2024/04/18 11:59:43;;;;;;;4.45;1.40;;;13.60;93.70;;;;;;5313250;26;20001;-54
2024/04/18 12:02:09;;;;;;;7.00;1.50;;;13.80;94.10;;;;;;5354717;26;20075;-57
2024/04/18 12:04:35;;;;;;;2.15;1.02;;;13.80;95.10;;;;;;5321034;26;20032;-54
2024/04/18 12:07:01;;;;;;;2.45;1.20;;;13.70;93.80;;;;;;5348729;26;20001;-56
2024/04/18 12:09:27;;;;;;;4.65;1.63;;;13.40;95.00;;;;;;5327603;26;20013;-56
2024/04/18 12:11:53;;;;;;;8.20;1.77;;;13.70;93.20;;;;;;5353210;26;20005;-56
2024/04/18 12:14:18;;;;;;;4.80;1.60;;;13.40;94.10;;;;;;5351215;26;20016;-54
2024/04/18 12:16:44;;;;;;;4.03;1.23;;;13.40;94.50;;;;;;5357445;26;20005;-57
2024/04/18 12:19:10;;;;;;;3.38;1.20;;;13.20;94.10;;;;;;5379588;26;20000;-57
2024/04/18 12:21:35;;;;;;;7.38;2.50;;;13.00;94.90;;;;;;5360492;26;20005;-54
2024/04/18 12:24:01;;;;;;;4.55;1.40;;;13.00;96.70;;;;;;5332667;26;20005;-57
2024/04/18 12:26:26;;;;;;;5.85;1.38;;;13.00;95.10;;;;;;5349916;26;20003;-57
2024/04/18 12:28:52;;;;;;;5.95;2.03;;;13.10;93.60;;;;;;5347956;26;20001;-56
2024/04/18 12:31:17;;;;;;;7.53;2.10;;;13.00;94.20;;;;;;5349365;26;20013;-55
2024/04/18 12:33:43;;;;;;;6.00;2.17;;;13.00;94.70;;;;;;5357122;26;20005;-53
2024/04/18 12:36:11;;;;;;;5.28;1.83;;;12.90;94.10;;;;;;5360492;26;20004;-56
2024/04/18 12:38:37;;;;;;;4.45;1.73;;;13.00;94.30;;;;;;5344000;26;20001;-53
2024/04/18 12:41:03;;;;;;;7.70;1.67;;;13.00;92.50;;;;;;5362192;26;20448;-55